createdAt,value
2023-04-21T00:02:01.323Z,19.92
2023-04-21T00:04:29.073Z,20.35
2023-04-21T00:06:56.223Z,22.30
2023-04-21T00:09:23.194Z,21.55
2023-04-21T00:11:50.240Z,22.52
2023-04-21T00:14:17.773Z,21.10
2023-04-21T00:16:44.832Z,21.88
2023-04-21T00:19:13.789Z,24.10
2023-04-21T00:21:40.891Z,21.33
2023-04-21T00:24:08.878Z,20.45
2023-04-21T00:26:35.823Z,24.17
2023-04-21T00:29:03.912Z,22.35
2023-04-21T00:31:31.686Z,23.25
2023-04-21T00:33:59.065Z,23.40
2023-04-21T00:36:28.254Z,23.42
2023-04-21T00:38:55.609Z,26.85
2023-04-21T00:41:23.745Z,27.23
2023-04-21T00:44:10.520Z,26.15
2023-04-21T00:46:38.649Z,24.38
2023-04-21T00:49:08.462Z,24.63
2023-04-21T00:51:37.286Z,27.88
2023-04-21T00:54:07.045Z,27.58
2023-04-21T00:56:36.721Z,23.92
2023-04-21T00:59:04.315Z,28.73
2023-04-21T01:01:34.335Z,29.48
2023-04-21T01:04:03.900Z,26.90
2023-04-21T01:06:34.758Z,26.17
2023-04-21T01:09:05.194Z,33.70
2023-04-21T01:11:32.677Z,27.73
2023-04-21T01:14:00.949Z,28.42
2023-04-21T01:16:29.622Z,29.10
2023-04-21T01:18:57.197Z,28.42
2023-04-21T01:21:24.482Z,29.60
2023-04-21T01:23:51.904Z,31.30
2023-04-21T01:26:23.644Z,29.95
2023-04-21T01:28:50.838Z,29.23
2023-04-21T01:31:18.804Z,28.40
2023-04-21T01:33:46.015Z,33.22
2023-04-21T01:36:13.165Z,30.73
2023-04-21T01:38:42.512Z,27.55
2023-04-21T01:41:10.962Z,30.85
2023-04-21T01:43:38.719Z,32.15
2023-04-21T01:46:06.983Z,31.98
2023-04-21T01:48:34.291Z,34.22
2023-04-21T01:51:01.514Z,31.30
2023-04-21T01:53:28.665Z,33.95
2023-04-21T01:55:55.865Z,30.95
2023-04-21T01:58:23.027Z,34.80
2023-04-21T02:00:51.562Z,32.47
2023-04-21T02:03:18.785Z,32.00
2023-04-21T02:05:46.483Z,30.15
2023-04-21T02:08:13.475Z,33.35
2023-04-21T02:10:41.449Z,33.63
2023-04-21T02:13:11.946Z,30.77
2023-04-21T02:15:38.970Z,34.30
2023-04-21T02:18:08.302Z,33.03
2023-04-21T02:20:35.444Z,33.75
2023-04-21T02:23:02.494Z,33.92
2023-04-21T02:25:30.045Z,35.60
2023-04-21T02:27:57.168Z,32.50
2023-04-21T02:30:27.607Z,34.35
2023-04-21T02:32:54.856Z,36.63
2023-04-21T02:35:22.017Z,36.72
2023-04-21T02:37:50.960Z,35.25
2023-04-21T02:40:18.178Z,34.38
2023-04-21T02:42:45.406Z,35.72
2023-04-21T02:45:12.536Z,37.05
2023-04-21T02:47:39.540Z,36.15
2023-04-21T02:50:07.184Z,38.03
2023-04-21T02:52:40.464Z,36.42
2023-04-21T02:55:08.050Z,38.67
2023-04-21T02:57:35.077Z,34.20
2023-04-21T03:00:02.097Z,36.45
2023-04-21T03:02:29.346Z,38.15
2023-04-21T03:04:56.696Z,36.47
2023-04-21T03:07:23.767Z,33.78
2023-04-21T03:09:50.756Z,34.30
2023-04-21T03:12:17.771Z,34.58
2023-04-21T03:14:44.843Z,36.47
2023-04-21T03:17:11.880Z,35.58
2023-04-21T03:19:38.966Z,36.60
2023-04-21T03:22:06.599Z,37.83
2023-04-21T03:24:33.749Z,34.72
2023-04-21T03:27:01.779Z,39.25
2023-04-21T03:29:28.837Z,41.40
2023-04-21T03:31:56.180Z,37.25
2023-04-21T03:34:23.779Z,39.03
2023-04-21T03:36:50.831Z,37.05
2023-04-21T03:39:20.151Z,37.83
2023-04-21T03:41:48.947Z,38.50
2023-04-21T03:44:16.180Z,39.60
2023-04-21T03:46:43.212Z,40.22
2023-04-21T03:49:10.579Z,36.60
2023-04-21T03:51:37.543Z,38.47
2023-04-21T03:54:04.588Z,35.92
2023-04-21T03:56:31.584Z,41.03
2023-04-21T03:58:58.647Z,43.25
2023-04-21T04:01:25.551Z,40.15
2023-04-21T04:03:52.800Z,40.67
2023-04-21T04:06:19.917Z,41.90
2023-04-21T04:08:47.011Z,43.78
2023-04-21T04:11:13.951Z,42.03
2023-04-21T04:13:41.071Z,41.78
2023-04-21T04:16:08.329Z,41.08
2023-04-21T04:18:35.500Z,40.58
2023-04-21T04:21:09.114Z,43.42
2023-04-21T04:23:36.586Z,39.67
2023-04-21T04:26:05.572Z,41.20
2023-04-21T04:28:33.648Z,41.20
2023-04-21T04:31:01.176Z,38.50
2023-04-21T04:33:28.156Z,40.70
2023-04-21T04:35:55.300Z,40.58
2023-04-21T04:38:23.079Z,37.72
2023-04-21T04:40:58.905Z,41.63
2023-04-21T04:43:25.937Z,43.83
2023-04-21T04:45:53.342Z,41.30
2023-04-21T04:48:20.894Z,41.33
2023-04-21T04:50:47.861Z,41.47
2023-04-21T04:53:15.277Z,42.67
2023-04-21T04:55:42.266Z,43.83
2023-04-21T04:58:09.212Z,40.65
2023-04-21T05:00:37.654Z,39.90
2023-04-21T05:03:05.394Z,44.80
2023-04-21T05:05:32.561Z,44.05
2023-04-21T05:07:59.696Z,38.00
2023-04-21T05:10:26.660Z,42.80
2023-04-21T05:12:53.709Z,41.75
2023-04-21T05:15:22.523Z,43.45
2023-04-21T05:17:49.576Z,45.40
2023-04-21T05:20:16.704Z,43.25
2023-04-21T05:22:43.839Z,43.03
2023-04-21T05:25:15.889Z,43.33
2023-04-21T05:27:43.563Z,40.60
2023-04-21T05:30:11.373Z,39.60
2023-04-21T05:32:38.412Z,35.58
2023-04-21T05:35:06.266Z,39.55
2023-04-21T05:37:33.332Z,45.38
2023-04-21T05:40:00.639Z,41.30
2023-04-21T05:42:27.659Z,44.22
2023-04-21T05:44:55.281Z,42.00
2023-04-21T05:47:22.329Z,41.40
2023-04-21T05:49:53.846Z,40.50
2023-04-21T05:52:23.660Z,42.28
2023-04-21T05:54:50.752Z,40.90
2023-04-21T05:57:17.851Z,42.55
2023-04-21T05:59:44.924Z,44.28
2023-04-21T06:02:12.240Z,42.30
2023-04-21T06:04:39.533Z,42.88
2023-04-21T06:07:09.044Z,47.80
2023-04-21T06:09:36.767Z,47.95
2023-04-21T06:12:04.308Z,47.13
2023-04-21T06:14:31.560Z,42.75
2023-04-21T06:16:58.733Z,43.40
2023-04-21T06:19:25.828Z,49.90
2023-04-21T06:21:52.714Z,46.72
2023-04-21T06:24:25.251Z,52.25
2023-04-21T06:26:53.296Z,48.35
2023-04-21T06:29:20.889Z,48.47
2023-04-21T06:31:48.098Z,48.80
2023-04-21T06:34:15.741Z,44.17
2023-04-21T06:36:42.666Z,50.10
2023-04-21T06:39:09.594Z,46.22
2023-04-21T06:41:36.847Z,47.00
2023-04-21T06:44:03.786Z,49.45
2023-04-21T06:46:31.357Z,49.70
2023-04-21T06:48:58.478Z,47.38
2023-04-21T06:51:25.606Z,46.65
2023-04-21T06:53:52.661Z,44.17
2023-04-21T06:56:19.604Z,46.25
2023-04-21T06:58:47.024Z,43.30
2023-04-21T07:01:14.004Z,45.25
2023-04-21T07:03:41.377Z,48.92
2023-04-21T07:06:08.412Z,44.58
2023-04-21T07:08:35.676Z,46.08
2023-04-21T07:11:02.722Z,41.70
2023-04-21T07:13:29.958Z,44.67
2023-04-21T07:15:57.100Z,44.17
2023-04-21T07:18:24.215Z,43.72
2023-04-21T07:20:51.444Z,45.38
2023-04-21T07:23:19.204Z,41.08
2023-04-21T07:25:46.139Z,39.17
2023-04-21T07:28:16.069Z,43.83
2023-04-21T07:30:43.084Z,40.60
2023-04-21T07:33:10.250Z,43.78
2023-04-21T07:35:37.226Z,43.83
2023-04-21T07:38:04.294Z,40.75
2023-04-21T07:40:31.812Z,38.92
2023-04-21T07:42:58.844Z,40.33
2023-04-21T07:45:26.453Z,37.33
2023-04-21T07:47:53.732Z,38.75
2023-04-21T07:50:20.911Z,39.35
2023-04-21T07:52:48.153Z,37.58
2023-04-21T07:55:15.174Z,36.50
2023-04-21T07:57:42.389Z,38.00
2023-04-21T08:00:10.852Z,37.47
2023-04-21T08:02:40.940Z,36.80
2023-04-21T08:05:08.728Z,37.47
2023-04-21T08:07:36.510Z,38.35
2023-04-21T08:10:04.257Z,39.25
2023-04-21T08:12:31.139Z,35.42
2023-04-21T08:14:58.191Z,37.67
2023-04-21T08:17:25.409Z,39.00
2023-04-21T08:19:52.467Z,35.60
2023-04-21T08:22:19.419Z,34.72
2023-04-21T08:24:46.444Z,35.40
2023-04-21T08:27:13.401Z,36.85
2023-04-21T08:29:40.421Z,40.88
2023-04-21T08:32:07.590Z,37.15
2023-04-21T08:34:35.201Z,35.08
2023-04-21T08:37:02.233Z,34.65
2023-04-21T08:39:29.604Z,39.72
2023-04-21T08:41:58.916Z,38.13
2023-04-21T08:44:26.605Z,41.85
2023-04-21T08:46:56.483Z,40.03
2023-04-21T08:49:24.440Z,39.75
2023-04-21T08:51:51.375Z,41.58
2023-04-21T08:54:18.697Z,41.15
2023-04-21T08:56:47.588Z,39.70
2023-04-21T08:59:14.583Z,37.60
2023-04-21T09:02:19.893Z,39.15
2023-04-21T09:04:51.891Z,38.08
2023-04-21T09:07:36.135Z,35.78
2023-04-21T09:10:06.144Z,37.28
2023-04-21T09:12:33.196Z,41.75
2023-04-21T09:15:05.582Z,37.38
2023-04-21T09:17:33.717Z,43.10
2023-04-21T09:20:18.931Z,39.17
2023-04-21T09:22:49.559Z,34.50
2023-04-21T09:25:19.781Z,33.60
2023-04-21T09:27:47.863Z,34.83
2023-04-21T09:30:20.003Z,34.22
2023-04-21T09:32:47.186Z,32.38
2023-04-21T09:35:14.587Z,32.97
2023-04-21T09:37:44.565Z,31.55
2023-04-21T09:40:18.353Z,30.98
2023-04-21T09:42:46.010Z,30.63
2023-04-21T09:45:36.645Z,26.90
2023-04-21T09:48:09.582Z,34.30
2023-04-21T09:53:16.537Z,30.70
2023-04-21T09:55:51.611Z,29.75
2023-04-21T10:00:51.332Z,30.38
2023-04-21T10:03:21.006Z,28.25
2023-04-21T10:05:48.098Z,26.70
2023-04-21T10:08:17.160Z,25.90
2023-04-21T10:10:46.684Z,30.02
2023-04-21T10:13:18.576Z,27.60
2023-04-21T10:15:45.549Z,26.23
2023-04-21T10:18:19.873Z,28.00
2023-04-21T10:21:04.415Z,30.50
2023-04-21T10:23:44.152Z,32.20
2023-04-21T10:26:20.367Z,31.38
2023-04-21T10:28:57.549Z,29.77
2023-04-21T10:31:53.645Z,30.02
2023-04-21T10:34:24.794Z,28.23
2023-04-21T10:36:54.706Z,30.50
2023-04-21T10:39:30.355Z,27.08
2023-04-21T10:42:19.694Z,28.85
2023-04-21T10:44:58.622Z,29.27
2023-04-21T10:47:31.393Z,32.58
2023-04-21T10:50:00.526Z,29.15
2023-04-21T10:52:36.101Z,29.17
2023-04-21T10:55:08.517Z,28.52
2023-04-21T10:57:38.670Z,32.28
2023-04-21T11:00:07.126Z,25.98
2023-04-21T11:02:38.671Z,26.02
2023-04-21T11:05:10.026Z,26.40
2023-04-21T11:07:37.451Z,25.02
2023-04-21T11:10:08.070Z,31.38
2023-04-21T11:12:38.943Z,28.60
2023-04-21T11:15:14.333Z,25.95
2023-04-21T11:17:43.703Z,28.38
2023-04-21T11:20:11.114Z,28.92
2023-04-21T11:22:38.763Z,28.05
2023-04-21T11:25:16.209Z,33.17
2023-04-21T11:27:53.643Z,28.20
2023-04-21T11:30:20.977Z,27.10
2023-04-21T11:32:56.140Z,27.35
2023-04-21T11:35:23.689Z,29.20
2023-04-21T11:37:52.136Z,29.45
2023-04-21T11:40:19.514Z,30.10
2023-04-21T11:42:46.635Z,29.65
2023-04-21T11:45:21.889Z,29.73
2023-04-21T11:47:49.758Z,32.50
2023-04-21T11:50:34.385Z,27.45
2023-04-21T11:53:03.559Z,29.60
2023-04-21T11:55:30.640Z,28.10
2023-04-21T11:57:57.848Z,29.65
2023-04-21T12:00:31.315Z,28.65
2023-04-21T12:02:58.469Z,28.52
2023-04-21T12:05:25.972Z,26.50
2023-04-21T12:07:56.471Z,28.20
2023-04-21T12:10:23.702Z,25.75
2023-04-21T12:12:51.768Z,23.25
2023-04-21T12:15:22.782Z,23.75
2023-04-21T12:17:54.520Z,24.67
2023-04-21T12:20:28.310Z,22.50
2023-04-21T12:22:56.430Z,23.65
2023-04-21T12:25:24.579Z,22.30
2023-04-21T12:27:59.293Z,22.10
2023-04-21T12:30:26.333Z,23.48
2023-04-21T12:32:55.763Z,23.45
2023-04-21T12:35:23.450Z,21.67
2023-04-21T12:37:50.406Z,23.15
2023-04-21T12:40:18.307Z,20.15
2023-04-21T12:42:45.319Z,17.45
2023-04-21T12:45:13.417Z,16.33
2023-04-21T12:47:42.989Z,17.13
2023-04-21T12:50:12.573Z,17.35
2023-04-21T12:52:39.586Z,18.42
2023-04-21T12:55:06.775Z,18.58
2023-04-21T12:57:34.047Z,16.80
2023-04-21T13:00:01.097Z,22.70
2023-04-21T13:02:28.432Z,19.33
2023-04-21T13:04:55.512Z,18.55
2023-04-21T13:07:26.647Z,16.65
2023-04-21T13:09:53.738Z,17.63
2023-04-21T13:12:21.307Z,16.80
2023-04-21T13:14:48.287Z,16.58
2023-04-21T13:17:16.390Z,16.95
2023-04-21T13:19:43.511Z,15.98
2023-04-21T13:22:10.480Z,18.77
2023-04-21T13:24:37.531Z,16.88
2023-04-21T13:27:13.666Z,15.95
2023-04-21T13:29:41.317Z,18.92
2023-04-21T13:32:08.901Z,14.65
2023-04-21T13:34:36.220Z,18.38
2023-04-21T13:37:03.659Z,19.42
2023-04-21T13:39:30.974Z,18.63
2023-04-21T13:41:58.208Z,19.25
2023-04-21T13:44:25.505Z,17.95
2023-04-21T13:46:53.806Z,16.35
2023-04-21T13:49:21.088Z,18.45
2023-04-21T13:51:48.107Z,20.33
2023-04-21T13:54:15.132Z,17.02
2023-04-21T13:56:42.173Z,18.60
2023-04-21T13:59:10.849Z,14.02
2023-04-21T14:01:37.967Z,13.45
2023-04-21T14:04:05.056Z,15.52
2023-04-21T14:06:33.091Z,16.45
2023-04-21T14:09:01.264Z,16.30
2023-04-21T14:11:28.593Z,14.82
2023-04-21T14:14:09.069Z,16.35
2023-04-21T14:16:37.986Z,14.75
2023-04-21T14:19:05.085Z,14.43
2023-04-21T14:21:32.678Z,16.63
2023-04-21T14:23:59.809Z,13.38
2023-04-21T14:26:27.033Z,12.88
2023-04-21T14:28:54.056Z,13.00
2023-04-21T14:31:22.273Z,13.68
2023-04-21T14:33:49.541Z,12.55
2023-04-21T14:36:16.577Z,10.70
2023-04-21T14:38:43.728Z,12.65
2023-04-21T14:41:10.701Z,12.07
2023-04-21T14:43:37.790Z,11.00
2023-04-21T14:46:05.209Z,10.57
2023-04-21T14:48:32.652Z,9.73
2023-04-21T14:50:59.782Z,10.10
2023-04-21T14:53:27.251Z,9.73
2023-04-21T14:55:54.872Z,11.85
2023-04-21T14:58:22.006Z,10.73
2023-04-21T15:00:49.053Z,11.70
2023-04-21T15:03:16.488Z,10.07
2023-04-21T15:05:43.597Z,10.55
2023-04-21T15:08:11.891Z,10.15
2023-04-21T15:10:38.909Z,8.40
2023-04-21T15:13:06.118Z,9.82
2023-04-21T15:15:33.119Z,10.52
2023-04-21T15:18:00.186Z,9.95
2023-04-21T15:20:40.739Z,9.15
2023-04-21T15:23:11.966Z,10.38
2023-04-21T15:25:39.911Z,9.18
2023-04-21T15:28:07.631Z,13.57
2023-04-21T15:30:34.669Z,8.65
2023-04-21T15:33:01.769Z,9.27
2023-04-21T15:35:28.760Z,8.27
2023-04-21T15:37:55.807Z,9.50
2023-04-21T15:40:22.886Z,9.80
2023-04-21T15:42:49.892Z,9.23
2023-04-21T15:45:18.204Z,7.97
2023-04-21T15:47:45.557Z,10.10
2023-04-21T15:50:13.720Z,9.35
2023-04-21T15:52:43.373Z,9.52
2023-04-21T15:55:13.713Z,9.68
2023-04-21T15:57:40.860Z,7.78
2023-04-21T16:00:10.331Z,11.05
2023-04-21T16:02:37.784Z,8.07
2023-04-21T16:05:05.670Z,11.15
2023-04-21T16:07:33.040Z,9.10
2023-04-21T16:10:00.350Z,11.23
2023-04-21T16:12:28.164Z,8.07
2023-04-21T16:14:59.491Z,9.23
2023-04-21T16:17:36.631Z,7.78
2023-04-21T16:20:05.757Z,7.18
2023-04-21T16:22:33.115Z,8.85
2023-04-21T16:25:00.907Z,8.43
2023-04-21T16:27:28.090Z,10.25
2023-04-21T16:29:55.166Z,10.43
2023-04-21T16:32:22.329Z,8.93
2023-04-21T16:34:49.362Z,11.75
2023-04-21T16:37:16.514Z,10.13
2023-04-21T16:39:43.587Z,8.85
2023-04-21T16:42:10.739Z,9.38
2023-04-21T16:44:37.940Z,8.20
2023-04-21T16:47:05.974Z,10.20
2023-04-21T16:49:32.989Z,9.43
2023-04-21T16:52:00.541Z,8.45
2023-04-21T16:54:27.540Z,11.35
2023-04-21T16:56:54.664Z,10.27
2023-04-21T16:59:23.670Z,8.77
2023-04-21T17:01:50.788Z,12.13
2023-04-21T17:04:17.851Z,9.02
2023-04-21T17:06:44.882Z,7.32
2023-04-21T17:09:11.877Z,7.93
2023-04-21T17:11:40.182Z,7.78
2023-04-21T17:14:07.239Z,6.38
2023-04-21T17:16:34.561Z,8.57
2023-04-21T17:19:02.468Z,7.97
2023-04-21T17:21:29.507Z,6.82
2023-04-21T17:23:56.534Z,6.55
2023-04-21T17:26:23.955Z,6.00
2023-04-21T17:28:51.479Z,7.13
2023-04-21T17:31:18.792Z,6.97
2023-04-21T17:33:45.921Z,8.02
2023-04-21T17:36:13.353Z,7.97
2023-04-21T17:38:42.586Z,8.10
2023-04-21T17:41:09.816Z,6.25
2023-04-21T17:43:37.233Z,5.45
2023-04-21T17:46:06.402Z,6.70
2023-04-21T17:48:34.000Z,5.60
2023-04-21T17:51:01.004Z,5.53
2023-04-21T17:53:27.984Z,6.28
2023-04-21T17:55:54.953Z,9.13
2023-04-21T17:58:22.712Z,7.07
2023-04-21T18:00:49.598Z,9.52
2023-04-21T18:03:16.870Z,7.82
2023-04-21T18:05:44.650Z,3.63
2023-04-21T18:08:11.946Z,5.45
2023-04-21T18:10:38.951Z,5.07
2023-04-21T18:13:06.686Z,5.57
2023-04-21T18:15:33.729Z,5.47
2023-04-21T18:18:00.787Z,7.57
2023-04-21T18:20:28.063Z,5.82
2023-04-21T18:22:55.259Z,8.50
2023-04-21T18:25:38.397Z,5.93
2023-04-21T18:28:10.978Z,9.63
2023-04-21T18:30:39.460Z,8.98
2023-04-21T18:33:06.871Z,10.23
2023-04-21T18:35:34.087Z,3.90
2023-04-21T18:38:01.301Z,3.42
2023-04-21T18:40:28.350Z,7.15
2023-04-21T18:42:56.875Z,7.50
2023-04-21T18:45:23.897Z,6.43
2023-04-21T18:47:50.934Z,5.85
2023-04-21T18:50:18.101Z,10.63
2023-04-21T18:52:45.011Z,8.05
2023-04-21T18:55:12.181Z,11.20
2023-04-21T18:57:39.231Z,9.50
2023-04-21T19:00:07.627Z,7.88
2023-04-21T19:02:34.612Z,12.65
2023-04-21T19:05:01.940Z,9.05
2023-04-21T19:07:28.891Z,8.27
2023-04-21T19:09:55.839Z,10.60
2023-04-21T19:12:23.179Z,7.25
2023-04-21T19:14:51.485Z,10.40
2023-04-21T19:17:18.742Z,10.85
2023-04-21T19:19:45.931Z,17.33
2023-04-21T19:22:13.171Z,18.27
2023-04-21T19:24:40.398Z,9.70
2023-04-21T19:27:07.501Z,11.65
2023-04-21T19:29:36.546Z,8.52
2023-04-21T19:32:03.902Z,8.40
2023-04-21T19:34:30.868Z,7.40
2023-04-21T19:36:57.930Z,10.82
2023-04-21T19:39:25.046Z,7.82
2023-04-21T19:41:52.054Z,8.00
2023-04-21T19:44:19.065Z,11.75
2023-04-21T19:46:46.145Z,8.27
2023-04-21T19:49:14.188Z,14.43
2023-04-21T19:51:42.238Z,9.68
2023-04-21T19:54:12.493Z,11.52
2023-04-21T19:56:40.756Z,6.90
2023-04-21T19:59:08.610Z,3.22
2023-04-21T20:01:41.546Z,7.65
2023-04-21T20:04:11.920Z,5.22
2023-04-21T20:06:39.976Z,3.10
2023-04-21T20:09:07.118Z,9.23
2023-04-21T20:11:34.419Z,6.55
2023-04-21T20:14:04.196Z,3.28
2023-04-21T20:16:33.005Z,5.60
2023-04-21T20:19:05.722Z,4.82
2023-04-21T20:22:21.250Z,7.93
2023-04-21T20:25:19.276Z,3.97
2023-04-21T20:27:56.446Z,7.03
2023-04-21T20:30:25.180Z,3.25
2023-04-21T20:32:52.729Z,2.25
2023-04-21T20:35:19.918Z,4.78
2023-04-21T20:37:47.431Z,6.72
2023-04-21T20:40:14.907Z,4.03
2023-04-21T20:42:45.155Z,2.80
2023-04-21T20:45:17.430Z,2.45
2023-04-21T20:47:45.247Z,4.10
2023-04-21T20:50:12.740Z,3.08
2023-04-21T20:52:39.826Z,5.18
2023-04-21T20:55:07.342Z,4.60
2023-04-21T20:57:34.903Z,2.78
2023-04-21T21:00:02.281Z,2.55
2023-04-21T21:02:30.160Z,2.60
2023-04-21T21:04:57.500Z,3.72
2023-04-21T21:07:24.706Z,2.88
2023-04-21T21:09:51.913Z,5.38
2023-04-21T21:12:18.926Z,2.35
2023-04-21T21:14:45.974Z,4.13
2023-04-21T21:17:16.393Z,6.10
2023-04-21T21:19:43.776Z,9.68
2023-04-21T21:22:10.759Z,5.53
2023-04-21T21:24:37.785Z,20.17
2023-04-21T21:27:04.946Z,15.40
2023-04-21T21:29:32.124Z,4.78
2023-04-21T21:31:59.220Z,5.28
2023-04-21T21:34:26.495Z,3.85
2023-04-21T21:36:53.703Z,6.10
2023-04-21T21:39:21.019Z,5.85
2023-04-21T21:41:48.022Z,7.82
2023-04-21T21:44:15.238Z,7.70
2023-04-21T21:46:42.867Z,6.82
2023-04-21T21:49:11.097Z,5.03
2023-04-21T21:51:38.212Z,8.27
2023-04-21T21:54:06.704Z,8.23
2023-04-21T21:56:33.950Z,6.00
2023-04-21T21:59:01.099Z,15.38
2023-04-21T22:01:28.212Z,11.10
2023-04-21T22:03:55.497Z,10.00
2023-04-21T22:06:24.240Z,7.75
2023-04-21T22:08:52.257Z,6.53
2023-04-21T22:11:19.913Z,7.28
2023-04-21T22:13:47.380Z,8.00
2023-04-21T22:16:14.435Z,8.95
2023-04-21T22:18:41.676Z,8.93
2023-04-21T22:21:08.942Z,7.10
2023-04-21T22:23:36.607Z,7.95
2023-04-21T22:26:03.667Z,6.53
2023-04-21T22:28:30.912Z,8.40
2023-04-21T22:30:58.094Z,6.70
2023-04-21T22:33:25.296Z,8.18
2023-04-21T22:35:52.279Z,7.03
2023-04-21T22:38:19.361Z,7.70
2023-04-21T22:40:46.966Z,8.85
2023-04-21T22:43:14.144Z,8.38
2023-04-21T22:45:42.917Z,7.90
2023-04-21T22:48:10.177Z,6.45
2023-04-21T22:50:37.273Z,8.10
2023-04-21T22:53:04.507Z,5.93
2023-04-21T22:55:32.039Z,7.88
2023-04-21T22:58:00.056Z,7.25
2023-04-21T23:00:27.376Z,11.88
2023-04-21T23:02:54.943Z,7.03
2023-04-21T23:05:22.220Z,6.88
2023-04-21T23:07:49.305Z,8.95
2023-04-21T23:10:16.693Z,8.57
2023-04-21T23:12:44.113Z,7.18
2023-04-21T23:15:11.694Z,9.05
2023-04-21T23:17:39.075Z,7.40
2023-04-21T23:20:07.400Z,8.35
2023-04-21T23:22:34.553Z,7.88
2023-04-21T23:25:01.746Z,8.25
2023-04-21T23:27:28.902Z,6.88
2023-04-21T23:29:56.313Z,8.55
2023-04-21T23:32:23.546Z,7.47
2023-04-21T23:34:50.753Z,6.68
2023-04-21T23:37:17.866Z,9.77
2023-04-21T23:39:45.352Z,8.82
2023-04-21T23:42:12.629Z,8.85
2023-04-21T23:44:40.698Z,8.93
2023-04-21T23:47:08.267Z,7.90
2023-04-21T23:49:36.013Z,8.80
2023-04-21T23:52:03.651Z,8.45
2023-04-21T23:54:30.901Z,7.43
2023-04-21T23:56:58.714Z,10.50
2023-04-21T23:59:26.133Z,8.27
